Skip Navigation Links Skip Navigation Links

Current Weather

Asswan, Egypt

For information only: do not use for flight planning or navigation.
Latest weather
Observation time Monday, November 29, 2021 11:00 PM EET
Local time Tuesday, November 30, 2021 12:03 AM EET
Flight conditions Visual Meteorological Conditions
Winds
Wind direction North-Northeast (30°)
Wind speed 7 mph
Visibility 6.2 mi.
Sky condition
Ceiling unlimited
Sky clear
Temperature 77°F
Dewpoint 45°F
Altimeter 30.00 in.Hg
Derived measurements
Relative humidity 32%
Heat index 77°F
Density altitude 1849 ft.
Remarks
Ceiling and visibility OK.
No significant changes expected in the next two hours.
METAR HESN 292100Z 03006KT CAVOK 25/07 Q1016 NOSIG

Settings

Location code

InnerDrive.Weather 4.0.6770.0 Release CLR 4.0.30319.42000
Copyright ©2018 Inner Drive Technology. All rights reserved. Portions Copyright ©1986-2018 David Braverman.

Find weather

Site navigation


Skip Navigation Links

Place info

Page info

PayPal - The safer, easier way to pay online!

Return home.

Copyright ©2021 Inner Drive Technology. Purveyors of fine, hand-crafted computer software. Page printed 2021-11-29T22:03:26 UTC.